Time;durP1;ratioP1;P1;durP2;ratioP2;P2;SDS_P1;SDS_P2;PMS_P1;PMS_P2;Temp;Humidity;BMP_temperature;BMP_pressure;BME280_temperature;BME280_humidity;BME280_pressure;Samples;Min_cycle;Max_cycle;Signal;HPM_P1;HPM_P2
2021/06/12 00:00:58;;;;;;;12.13;7.05;;;17.70;92.20;;;;;;5081378;28;20105;-67
2021/06/12 00:03:23;;;;;;;13.32;7.05;;;17.70;92.30;;;;;;5082962;28;20040;-67
2021/06/12 00:05:49;;;;;;;8.38;6.38;;;17.70;92.30;;;;;;5085705;28;20024;-67
2021/06/12 00:08:15;;;;;;;11.27;6.30;;;17.70;92.30;;;;;;5082517;28;20036;-67
2021/06/12 00:10:41;;;;;;;11.75;7.45;;;17.60;92.20;;;;;;5082604;28;20047;-67
2021/06/12 00:13:07;;;;;;;10.45;6.18;;;17.60;92.30;;;;;;5081905;28;20024;-66
2021/06/12 00:15:34;;;;;;;11.70;7.03;;;17.60;92.20;;;;;;5084283;28;20036;-66
2021/06/12 00:18:00;;;;;;;10.88;6.75;;;17.60;92.20;;;;;;5082613;28;20050;-66
2021/06/12 00:20:29;;;;;;;13.02;6.68;;;17.60;92.20;;;;;;5085376;28;20022;-67
2021/06/12 00:22:55;;;;;;;8.32;6.53;;;17.50;92.20;;;;;;5083043;28;20035;-67
2021/06/12 00:25:25;;;;;;;8.82;6.40;;;17.50;92.30;;;;;;5081589;28;20054;-67
2021/06/12 00:27:51;;;;;;;8.82;6.60;;;17.50;92.30;;;;;;5084158;28;20115;-67
2021/06/12 00:30:17;;;;;;;8.30;6.07;;;17.40;92.30;;;;;;5065597;28;20115;-67
2021/06/12 00:32:43;;;;;;;9.07;6.15;;;17.40;92.30;;;;;;5085057;28;20472;-67
2021/06/12 00:35:11;;;;;;;7.35;5.63;;;17.40;92.30;;;;;;5079789;28;20026;-67
2021/06/12 00:37:36;;;;;;;11.10;6.15;;;17.40;92.30;;;;;;5085633;28;20028;-68
2021/06/12 00:40:04;;;;;;;12.52;6.80;;;17.30;92.30;;;;;;5053723;28;20027;-67
2021/06/12 00:42:29;;;;;;;10.77;6.07;;;17.30;92.40;;;;;;5078928;28;20474;-67
2021/06/12 00:44:55;;;;;;;11.27;6.55;;;17.30;92.40;;;;;;5085138;28;20035;-66
2021/06/12 00:47:20;;;;;;;10.02;6.40;;;17.20;92.40;;;;;;5082046;28;20036;-67
2021/06/12 00:49:46;;;;;;;10.85;6.88;;;17.20;92.50;;;;;;5083344;28;20494;-67
2021/06/12 00:52:12;;;;;;;7.88;4.65;;;17.20;92.50;;;;;;5078798;28;20077;-67
2021/06/12 00:54:37;;;;;;;10.55;7.28;;;17.10;92.50;;;;;;5065844;28;20522;-68
2021/06/12 00:57:04;;;;;;;15.90;6.75;;;17.10;92.60;;;;;;5079366;28;20042;-67
2021/06/12 00:59:31;;;;;;;11.05;6.38;;;17.10;92.60;;;;;;5081670;28;20363;-67
2021/06/12 01:01:57;;;;;;;13.15;7.03;;;17.10;92.90;;;;;;5080414;28;20032;-67
2021/06/12 01:04:23;;;;;;;11.18;6.93;;;17.10;92.70;;;;;;5085109;28;20024;-67
2021/06/12 01:06:50;;;;;;;10.40;6.18;;;17.10;92.70;;;;;;5059866;28;20024;-67
2021/06/12 01:09:17;;;;;;;14.25;6.90;;;17.00;92.70;;;;;;5080124;28;20034;-67
2021/06/12 01:12:07;;;;;;;10.65;6.45;;;17.00;92.80;;;;;;5064301;28;20032;-67
2021/06/12 01:14:38;;;;;;;10.20;6.13;;;17.00;92.80;;;;;;5081140;28;20024;-67
2021/06/12 01:17:28;;;;;;;13.27;7.18;;;16.90;92.80;;;;;;5064018;28;20630;-68
2021/06/12 01:20:27;;;;;;;14.00;6.07;;;16.90;92.80;;;;;;5081814;28;20028;-68
2021/06/12 01:23:11;;;;;;;9.93;5.93;;;17.00;92.80;;;;;;5079315;28;20415;-66
2021/06/12 01:25:58;;;;;;;11.82;5.57;;;16.90;92.80;;;;;;5079459;28;20550;-66
2021/06/12 01:29:01;;;;;;;11.10;5.82;;;16.90;92.80;;;;;;5083171;28;20023;-67
2021/06/12 01:31:27;;;;;;;;;;;16.90;92.90;;;;;;5080048;28;20031;-67
2021/06/12 01:33:54;;;;;;;11.02;6.07;;;16.80;92.80;;;;;;5070388;28;20289;-67
2021/06/12 01:36:22;;;;;;;10.50;5.97;;;16.80;92.90;;;;;;5083820;28;20028;-67
2021/06/12 01:38:50;;;;;;;8.38;5.15;;;16.80;92.90;;;;;;5081941;28;20090;-67
2021/06/12 01:41:21;;;;;;;10.80;6.18;;;16.80;92.90;;;;;;5081691;28;20048;-67
2021/06/12 01:43:48;;;;;;;13.35;6.18;;;16.90;93.00;;;;;;5084033;28;20028;-68
2021/06/12 01:46:15;;;;;;;11.02;6.13;;;16.80;93.00;;;;;;5084188;28;20516;-67
2021/06/12 01:48:43;;;;;;;13.05;6.13;;;16.90;93.00;;;;;;5083684;28;20035;-67
2021/06/12 01:51:10;;;;;;;10.35;5.82;;;16.80;93.00;;;;;;5083035;28;20331;-67
2021/06/12 01:53:38;;;;;;;10.80;5.07;;;16.80;93.00;;;;;;5064254;28;20101;-66
2021/06/12 01:56:06;;;;;;;11.70;5.22;;;16.90;93.10;;;;;;5084818;28;20119;-68
2021/06/12 01:58:33;;;;;;;8.90;4.63;;;16.90;93.10;;;;;;5080393;28;20028;-67
2021/06/12 02:01:00;;;;;;;12.00;4.97;;;16.90;93.10;;;;;;5079775;28;20042;-67
2021/06/12 02:03:27;;;;;;;10.68;5.32;;;16.90;93.10;;;;;;5085202;28;20470;-67
2021/06/12 02:05:54;;;;;;;7.22;5.03;;;16.90;93.10;;;;;;5086698;28;20478;-67
2021/06/12 02:08:21;;;;;;;10.55;5.32;;;17.00;93.10;;;;;;5082810;28;20474;-67
2021/06/12 02:10:50;;;;;;;11.98;6.00;;;17.00;93.10;;;;;;5085579;28;20031;-67
2021/06/12 02:13:16;;;;;;;10.02;4.97;;;17.00;93.00;;;;;;5069718;28;20024;-67
2021/06/12 02:15:45;;;;;;;12.20;5.65;;;17.10;93.00;;;;;;5089079;28;20032;-67
2021/06/12 02:18:12;;;;;;;10.82;5.50;;;17.10;93.00;;;;;;5087909;28;20107;-67
2021/06/12 02:20:38;;;;;;;7.75;4.95;;;17.10;92.90;;;;;;5083628;28;20135;-67
2021/06/12 02:23:07;;;;;;;9.05;5.00;;;17.10;92.90;;;;;;5086579;28;20543;-67
2021/06/12 02:25:34;;;;;;;12.15;5.22;;;17.10;92.90;;;;;;5090024;28;20036;-67
2021/06/12 02:28:10;;;;;;;9.60;5.20;;;17.10;92.90;;;;;;5086268;28;20020;-67
2021/06/12 02:30:48;;;;;;;9.15;5.60;;;17.10;92.90;;;;;;5085270;28;20508;-68
2021/06/12 02:33:16;;;;;;;9.88;5.05;;;17.20;92.90;;;;;;5087070;28;20040;-67
2021/06/12 02:35:42;;;;;;;11.73;5.95;;;17.10;92.80;;;;;;5087558;28;20110;-67
2021/06/12 02:38:07;;;;;;;11.20;4.60;;;17.20;92.90;;;;;;5086964;28;20515;-67
2021/06/12 02:40:33;;;;;;;10.15;5.28;;;17.20;92.90;;;;;;5087629;28;20043;-67
2021/06/12 02:42:59;;;;;;;11.93;4.82;;;17.20;92.90;;;;;;5086066;28;20028;-67
2021/06/12 02:45:25;;;;;;;10.63;5.03;;;17.20;92.80;;;;;;5090723;28;20055;-67
2021/06/12 02:47:55;;;;;;;8.63;5.55;;;17.20;92.80;;;;;;5086833;28;20149;-67
2021/06/12 02:50:24;;;;;;;9.40;5.60;;;17.20;92.80;;;;;;5081300;28;20107;-67
2021/06/12 02:52:51;;;;;;;11.70;5.28;;;17.20;92.80;;;;;;5088659;28;20070;-67
2021/06/12 02:55:17;;;;;;;9.20;5.63;;;17.20;92.80;;;;;;5089288;28;20066;-67
2021/06/12 02:57:47;;;;;;;10.65;5.25;;;17.20;92.80;;;;;;5085787;28;20470;-67
2021/06/12 03:00:16;;;;;;;11.23;5.60;;;17.20;92.80;;;;;;5086957;28;20032;-67
2021/06/12 03:02:43;;;;;;;11.13;5.72;;;17.20;92.80;;;;;;5085466;28;20418;-67
2021/06/12 03:05:18;;;;;;;15.95;6.25;;;17.20;92.80;;;;;;5085699;28;20030;-67
2021/06/12 03:07:47;;;;;;;8.68;5.10;;;17.20;92.80;;;;;;5087293;28;20063;-67
2021/06/12 03:10:14;;;;;;;11.40;6.05;;;17.20;92.80;;;;;;5084209;28;20029;-67
2021/06/12 03:12:41;;;;;;;13.40;5.63;;;17.20;92.90;;;;;;5069846;28;20032;-67
2021/06/12 03:15:08;;;;;;;11.00;5.95;;;17.20;92.90;;;;;;5087712;28;20056;-67
2021/06/12 03:17:35;;;;;;;12.38;6.50;;;17.20;92.90;;;;;;5091942;28;20028;-67
2021/06/12 03:20:02;;;;;;;15.05;6.30;;;17.20;92.90;;;;;;5088048;28;20478;-67
2021/06/12 03:22:28;;;;;;;11.52;6.30;;;17.20;93.00;;;;;;5090808;28;20387;-67
2021/06/12 03:24:55;;;;;;;11.45;6.13;;;17.20;93.00;;;;;;5086349;28;20046;-67
2021/06/12 03:27:21;;;;;;;12.00;6.07;;;17.20;93.00;;;;;;5089822;28;20027;-67
2021/06/12 03:29:47;;;;;;;8.95;5.82;;;17.20;93.00;;;;;;5083008;28;20029;-67
2021/06/12 03:32:13;;;;;;;10.55;6.30;;;17.20;93.00;;;;;;5086956;28;20032;-67
2021/06/12 03:34:39;;;;;;;9.55;5.78;;;17.20;93.00;;;;;;5083915;28;20020;-67
2021/06/12 03:37:07;;;;;;;8.80;5.97;;;17.20;93.00;;;;;;5086790;28;20047;-67
2021/06/12 03:39:33;;;;;;;12.10;6.65;;;17.20;93.30;;;;;;5087536;28;20028;-68
2021/06/12 03:41:59;;;;;;;12.32;7.25;;;17.20;93.10;;;;;;5080313;28;20035;-66
2021/06/12 03:44:26;;;;;;;10.73;6.38;;;17.20;93.10;;;;;;5084423;28;20046;-66
2021/06/12 03:46:53;;;;;;;13.50;6.93;;;17.20;93.40;;;;;;5086623;28;20032;-67
2021/06/12 03:49:19;;;;;;;10.98;6.78;;;17.20;93.10;;;;;;5084338;28;20039;-67
2021/06/12 03:51:47;;;;;;;14.77;6.65;;;17.20;93.10;;;;;;5089785;28;20027;-67
2021/06/12 03:54:14;;;;;;;19.13;7.93;;;17.20;93.10;;;;;;5088915;28;20043;-67
2021/06/12 03:56:40;;;;;;;9.73;6.60;;;17.20;93.20;;;;;;5070026;28;20032;-67
2021/06/12 03:59:07;;;;;;;12.20;7.65;;;17.20;93.20;;;;;;5083967;28;20098;-67
2021/06/12 04:01:33;;;;;;;11.10;7.60;;;17.20;93.20;;;;;;5071303;28;20028;-66
2021/06/12 04:03:59;;;;;;;14.52;8.02;;;17.30;93.20;;;;;;5091195;28;20020;-67
2021/06/12 04:06:25;;;;;;;12.50;7.45;;;17.30;93.20;;;;;;5082038;28;20021;-67
2021/06/12 04:08:50;;;;;;;14.38;8.32;;;17.30;93.20;;;;;;5069687;28;20162;-66
2021/06/12 04:11:16;;;;;;;15.27;8.70;;;17.30;93.20;;;;;;5087841;28;20036;-67
2021/06/12 04:13:42;;;;;;;14.82;8.82;;;17.30;93.20;;;;;;5089057;28;20032;-67
2021/06/12 04:16:09;;;;;;;15.05;8.55;;;17.30;93.10;;;;;;5068708;28;20024;-66
2021/06/12 04:18:35;;;;;;;12.43;8.07;;;17.30;93.20;;;;;;5088473;28;20044;-67
2021/06/12 04:21:00;;;;;;;15.07;8.55;;;17.40;93.10;;;;;;5085884;28;20031;-66
2021/06/12 04:23:28;;;;;;;11.77;9.00;;;17.30;93.10;;;;;;5088497;28;20107;-67
2021/06/12 04:25:54;;;;;;;17.17;10.45;;;17.40;93.10;;;;;;5089381;28;20289;-67
2021/06/12 04:28:20;;;;;;;13.52;8.98;;;17.40;93.10;;;;;;5090978;28;20039;-67
2021/06/12 04:30:45;;;;;;;14.65;9.57;;;17.40;93.10;;;;;;5089852;28;20023;-67
2021/06/12 04:33:11;;;;;;;14.32;9.70;;;17.40;93.10;;;;;;5087568;28;20099;-66
2021/06/12 04:35:37;;;;;;;13.70;9.25;;;17.40;93.10;;;;;;5088199;28;20028;-67
2021/06/12 04:38:03;;;;;;;14.48;9.23;;;17.40;93.10;;;;;;5090208;28;20028;-66
2021/06/12 04:40:31;;;;;;;14.10;9.57;;;17.50;93.10;;;;;;5066025;28;20028;-67
2021/06/12 04:42:57;;;;;;;12.70;8.65;;;17.50;93.10;;;;;;5078659;28;20037;-67
2021/06/12 04:45:23;;;;;;;13.10;9.15;;;17.50;93.00;;;;;;5086295;28;20124;-67
2021/06/12 04:47:49;;;;;;;16.20;10.48;;;17.50;93.00;;;;;;5069594;28;20110;-67
2021/06/12 04:50:15;;;;;;;15.98;10.65;;;17.50;93.00;;;;;;5088330;28;20034;-66
2021/06/12 04:52:41;;;;;;;17.10;10.82;;;17.50;93.00;;;;;;5088703;28;20020;-66
2021/06/12 04:55:08;;;;;;;17.85;10.55;;;17.50;93.10;;;;;;5086955;28;20102;-66
2021/06/12 04:57:34;;;;;;;15.82;10.48;;;17.50;93.10;;;;;;5088023;28;20066;-66
2021/06/12 05:00:00;;;;;;;15.77;10.40;;;17.60;93.10;;;;;;5088516;28;20028;-66
2021/06/12 05:02:26;;;;;;;17.73;11.13;;;17.60;93.00;;;;;;5070409;28;20490;-67
2021/06/12 05:04:51;;;;;;;17.33;10.95;;;17.60;93.10;;;;;;5066455;28;20475;-67
2021/06/12 05:07:17;;;;;;;15.75;10.75;;;17.60;93.00;;;;;;5075855;28;20032;-67
2021/06/12 05:09:42;;;;;;;19.55;10.57;;;17.70;93.00;;;;;;5077709;28;20032;-67
2021/06/12 05:12:09;;;;;;;17.33;10.52;;;17.60;93.00;;;;;;5073013;28;20024;-67
2021/06/12 05:14:34;;;;;;;15.20;9.88;;;17.70;93.00;;;;;;5087124;28;20043;-67
2021/06/12 05:17:03;;;;;;;16.77;10.10;;;17.70;93.00;;;;;;5087891;28;20038;-67
2021/06/12 05:19:28;;;;;;;15.05;9.60;;;17.70;93.00;;;;;;5087210;28;20374;-67
2021/06/12 05:21:54;;;;;;;16.42;10.60;;;17.70;93.00;;;;;;5075450;28;20028;-67
2021/06/12 05:24:20;;;;;;;20.77;11.40;;;17.70;93.00;;;;;;5081281;28;20214;-66
2021/06/12 05:26:45;;;;;;;14.90;10.75;;;17.70;93.00;;;;;;5085884;28;20031;-66
2021/06/12 05:29:11;;;;;;;15.70;10.82;;;17.70;93.00;;;;;;5088373;28;20033;-66
2021/06/12 05:31:36;;;;;;;16.33;11.30;;;17.70;93.00;;;;;;5082236;28;20076;-66
2021/06/12 05:34:03;;;;;;;19.25;11.02;;;17.70;93.00;;;;;;5086945;28;20016;-66
2021/06/12 05:36:31;;;;;;;17.98;12.15;;;17.80;93.00;;;;;;5067602;28;20031;-66
2021/06/12 05:38:56;;;;;;;18.58;12.00;;;17.80;93.00;;;;;;5084406;28;20028;-66
2021/06/12 05:41:22;;;;;;;16.73;11.02;;;17.80;93.00;;;;;;5079992;28;20054;-66
2021/06/12 05:43:47;;;;;;;17.38;11.85;;;17.90;93.00;;;;;;5069428;28;20106;-66
2021/06/12 05:46:13;;;;;;;19.65;13.27;;;17.90;93.00;;;;;;5083868;28;20439;-66
2021/06/12 05:48:39;;;;;;;18.48;13.35;;;18.00;92.90;;;;;;5085577;28;20020;-66
2021/06/12 05:51:04;;;;;;;21.10;13.25;;;18.00;92.90;;;;;;5088840;28;20486;-67
2021/06/12 05:53:30;;;;;;;22.80;13.80;;;18.10;92.90;;;;;;5079891;28;20036;-67
2021/06/12 05:55:55;;;;;;;21.13;12.05;;;18.10;93.10;;;;;;5083798;28;20205;-67
2021/06/12 05:58:21;;;;;;;21.65;14.38;;;18.20;92.80;;;;;;5079811;28;20106;-67
2021/06/12 06:00:47;;;;;;;20.67;13.23;;;18.10;92.70;;;;;;5082290;28;20048;-68
2021/06/12 06:03:12;;;;;;;22.08;13.40;;;18.20;92.70;;;;;;5084303;28;20074;-67
2021/06/12 06:05:39;;;;;;;17.85;12.43;;;18.30;92.70;;;;;;5082436;28;20028;-68
2021/06/12 06:08:05;;;;;;;23.65;12.68;;;18.40;92.60;;;;;;5081851;28;20484;-67
2021/06/12 06:10:30;;;;;;;19.17;12.20;;;18.40;92.40;;;;;;5081215;28;20099;-68
2021/06/12 06:13:03;;;;;;;16.90;11.82;;;18.50;92.20;;;;;;5080430;28;20025;-67
2021/06/12 06:15:29;;;;;;;19.98;11.18;;;18.50;92.10;;;;;;5066200;28;20256;-66
2021/06/12 06:17:54;;;;;;;21.70;12.15;;;18.60;92.00;;;;;;5081058;28;20119;-66
2021/06/12 06:20:20;;;;;;;16.73;11.48;;;18.70;91.90;;;;;;5084835;28;20035;-66
2021/06/12 06:22:46;;;;;;;13.45;9.65;;;18.80;91.80;;;;;;5085883;28;20043;-66
2021/06/12 06:25:12;;;;;;;18.08;10.68;;;18.80;91.80;;;;;;5081395;28;20062;-66
2021/06/12 06:27:38;;;;;;;15.35;10.95;;;19.00;91.70;;;;;;5084028;28;20077;-66
2021/06/12 06:30:06;;;;;;;17.67;11.77;;;19.10;91.50;;;;;;5082958;28;20095;-66
2021/06/12 06:32:31;;;;;;;17.05;11.27;;;19.20;91.30;;;;;;5084871;28;20033;-66
2021/06/12 06:34:57;;;;;;;16.40;11.00;;;19.30;91.10;;;;;;5086609;28;20063;-66
2021/06/12 06:37:23;;;;;;;16.05;10.95;;;19.30;90.90;;;;;;5087460;28;20028;-66
2021/06/12 06:39:49;;;;;;;19.13;11.63;;;19.40;90.90;;;;;;5082328;28;20032;-66
2021/06/12 06:42:15;;;;;;;19.73;11.45;;;19.50;90.70;;;;;;5088530;28;20035;-66
2021/06/12 06:44:40;;;;;;;15.00;9.93;;;19.60;90.50;;;;;;5090155;28;20020;-65
2021/06/12 06:47:06;;;;;;;13.93;9.88;;;19.70;90.30;;;;;;5084251;28;20024;-66
2021/06/12 06:49:32;;;;;;;15.93;9.98;;;19.80;90.20;;;;;;5090819;28;20028;-65
2021/06/12 06:51:58;;;;;;;14.82;9.45;;;19.70;90.00;;;;;;5089900;28;20030;-66
2021/06/12 06:54:24;;;;;;;13.45;9.40;;;19.90;89.80;;;;;;5092482;28;20055;-66
2021/06/12 06:56:49;;;;;;;15.07;9.13;;;20.00;89.50;;;;;;5091940;28;20039;-65
2021/06/12 06:59:16;;;;;;;15.18;8.45;;;20.10;89.20;;;;;;5091566;28;20032;-66
2021/06/12 07:01:42;;;;;;;11.25;7.43;;;20.30;89.10;;;;;;5082080;28;20037;-66
2021/06/12 07:04:08;;;;;;;14.55;7.90;;;20.30;88.10;;;;;;5088644;28;20047;-66
2021/06/12 07:06:33;;;;;;;11.77;7.25;;;20.40;87.60;;;;;;5093181;28;20032;-66
2021/06/12 07:08:59;;;;;;;10.65;7.13;;;20.50;86.80;;;;;;5091529;28;20047;-66
2021/06/12 07:11:28;;;;;;;14.32;8.65;;;20.50;86.90;;;;;;5088253;28;20524;-67
2021/06/12 07:13:53;;;;;;;14.55;7.38;;;20.70;86.30;;;;;;5072593;28;20433;-65
2021/06/12 07:16:19;;;;;;;13.35;6.85;;;20.90;85.10;;;;;;5088213;28;20020;-65
2021/06/12 07:18:45;;;;;;;8.38;5.65;;;21.00;83.90;;;;;;5086523;28;20045;-67
2021/06/12 07:21:10;;;;;;;9.45;6.22;;;21.00;84.00;;;;;;5082579;28;20033;-67
2021/06/12 07:23:36;;;;;;;10.60;5.25;;;21.10;83.10;;;;;;5088534;28;20031;-67
2021/06/12 07:26:02;;;;;;;10.05;5.93;;;21.30;82.60;;;;;;5073816;28;20034;-67
2021/06/12 07:28:28;;;;;;;8.05;5.72;;;21.40;80.90;;;;;;5089747;28;20070;-67
2021/06/12 07:30:54;;;;;;;7.85;4.32;;;21.40;79.60;;;;;;5072054;28;20054;-67
2021/06/12 07:33:19;;;;;;;9.63;4.75;;;21.40;78.30;;;;;;5084131;28;20032;-67
2021/06/12 07:35:45;;;;;;;11.32;5.28;;;21.30;77.70;;;;;;5089879;28;20036;-67
2021/06/12 07:38:11;;;;;;;10.98;4.43;;;21.20;77.80;;;;;;5087266;28;20024;-67
2021/06/12 07:40:38;;;;;;;23.98;5.10;;;21.20;77.90;;;;;;5087137;28;20036;-67
2021/06/12 07:43:05;;;;;;;10.82;4.20;;;21.10;77.70;;;;;;5088325;28;20117;-67
2021/06/12 07:45:31;;;;;;;12.55;4.10;;;21.00;77.10;;;;;;5091227;28;20024;-67
2021/06/12 07:47:56;;;;;;;8.43;3.58;;;21.00;77.10;;;;;;5088389;28;20032;-67
2021/06/12 07:50:23;;;;;;;7.13;3.97;;;21.00;76.60;;;;;;5091016;28;20082;-67
2021/06/12 07:52:48;;;;;;;7.38;4.13;;;21.10;76.10;;;;;;5089150;28;20212;-67
2021/06/12 07:55:15;;;;;;;6.65;3.05;;;21.10;75.40;;;;;;5091048;28;20132;-68
2021/06/12 07:57:40;;;;;;;6.15;3.33;;;21.10;75.10;;;;;;5083186;28;20032;-67
2021/06/12 08:00:10;;;;;;;7.30;3.05;;;21.20;74.90;;;;;;5089203;28;20094;-67
2021/06/12 08:02:36;;;;;;;7.40;3.30;;;21.30;74.60;;;;;;5086294;28;20032;-67
2021/06/12 08:05:04;;;;;;;8.45;3.05;;;21.20;73.90;;;;;;5084915;28;20040;-67
2021/06/12 08:07:30;;;;;;;6.53;2.92;;;21.10;73.60;;;;;;5088727;28;20027;-67
2021/06/12 08:09:56;;;;;;;6.78;2.45;;;21.10;73.60;;;;;;5088801;28;20016;-67
2021/06/12 08:12:22;;;;;;;5.13;2.63;;;21.10;73.30;;;;;;5085233;28;20032;-67
2021/06/12 08:14:49;;;;;;;3.92;2.35;;;21.00;72.80;;;;;;5085334;28;20024;-67
2021/06/12 08:17:15;;;;;;;6.10;3.00;;;21.00;72.80;;;;;;5086697;28;20478;-68
2021/06/12 08:19:41;;;;;;;6.10;3.08;;;21.00;72.90;;;;;;5089366;28;20065;-67
2021/06/12 08:22:07;;;;;;;5.57;2.60;;;21.20;73.30;;;;;;5090374;28;20099;-67
2021/06/12 08:24:34;;;;;;;3.50;1.70;;;21.20;72.00;;;;;;5086569;28;20110;-67
2021/06/12 08:27:00;;;;;;;5.53;1.77;;;21.20;71.30;;;;;;5091784;28;20020;-67
2021/06/12 08:29:26;;;;;;;7.70;2.30;;;21.30;71.30;;;;;;5085155;28;20393;-67
2021/06/12 08:31:52;;;;;;;7.13;2.25;;;21.40;69.70;;;;;;5087563;28;20501;-67
2021/06/12 08:34:17;;;;;;;5.03;1.15;;;21.30;68.60;;;;;;5090533;28;20027;-67
2021/06/12 08:36:43;;;;;;;6.35;1.30;;;21.20;69.00;;;;;;5091040;28;20059;-67
2021/06/12 08:39:09;;;;;;;3.70;1.50;;;21.20;69.10;;;;;;5087632;28;20035;-67
2021/06/12 08:41:34;;;;;;;8.32;1.85;;;21.10;69.00;;;;;;5086525;28;20067;-67
2021/06/12 08:44:01;;;;;;;6.43;1.73;;;21.00;68.30;;;;;;5082008;28;20107;-67
2021/06/12 08:46:28;;;;;;;6.30;1.42;;;20.70;68.40;;;;;;5081571;28;20376;-67
2021/06/12 08:48:55;;;;;;;5.70;1.35;;;20.60;68.60;;;;;;5085918;28;20024;-68
2021/06/12 08:51:21;;;;;;;6.03;1.85;;;20.60;68.60;;;;;;5086785;28;20039;-67
2021/06/12 08:53:49;;;;;;;4.75;1.52;;;20.50;68.20;;;;;;5071940;28;20040;-67
2021/06/12 08:56:14;;;;;;;8.32;1.75;;;20.60;68.90;;;;;;5093922;28;20035;-67
2021/06/12 08:58:40;;;;;;;6.50;2.00;;;20.60;68.90;;;;;;5093792;28;20121;-67
2021/06/12 09:01:06;;;;;;;7.07;1.60;;;20.90;69.10;;;;;;5093691;28;20493;-67
2021/06/12 09:03:40;;;;;;;5.22;1.40;;;21.10;67.80;;;;;;5092283;28;20077;-67
2021/06/12 09:06:06;;;;;;;4.82;1.60;;;21.20;67.10;;;;;;5093492;28;20389;-67
2021/06/12 09:08:36;;;;;;;4.45;1.58;;;21.20;67.30;;;;;;5093409;28;20103;-67
2021/06/12 09:11:15;;;;;;;6.55;2.35;;;21.30;67.20;;;;;;5092629;28;20030;-67
2021/06/12 09:13:48;;;;;;;7.00;2.00;;;21.40;66.90;;;;;;5093520;28;20040;-67
2021/06/12 09:16:40;;;;;;;7.07;1.60;;;21.40;65.90;;;;;;5093518;28;20448;-67
2021/06/12 09:19:10;;;;;;;6.50;1.70;;;21.50;66.50;;;;;;5093422;28;20108;-67
2021/06/12 09:21:38;;;;;;;3.38;1.27;;;21.60;66.50;;;;;;5093130;28;20019;-67
2021/06/12 09:24:17;;;;;;;5.18;1.60;;;21.70;65.00;;;;;;5075060;28;20462;-67
2021/06/12 09:26:53;;;;;;;8.20;2.00;;;21.80;64.80;;;;;;5093269;28;20035;-67
2021/06/12 09:29:20;;;;;;;7.50;1.52;;;21.90;64.70;;;;;;5093410;28;20108;-67
2021/06/12 09:31:53;;;;;;;7.68;1.83;;;22.10;64.90;;;;;;5093318;28;20027;-67
2021/06/12 09:34:23;;;;;;;5.35;1.27;;;22.10;62.10;;;;;;5093263;28;20020;-67
2021/06/12 09:36:50;;;;;;;4.85;1.20;;;22.20;62.60;;;;;;5092970;28;20024;-67
2021/06/12 09:39:21;;;;;;;4.60;1.15;;;22.30;62.00;;;;;;5092977;28;20035;-67
2021/06/12 09:41:50;;;;;;;5.95;1.77;;;22.40;60.60;;;;;;5093050;28;20020;-67
2021/06/12 09:44:34;;;;;;;3.78;1.27;;;22.20;59.80;;;;;;5093175;28;20110;-67
2021/06/12 09:47:01;;;;;;;8.85;2.00;;;22.10;60.20;;;;;;5093223;28;20038;-67
2021/06/12 09:49:38;;;;;;;5.82;1.60;;;22.00;61.10;;;;;;5093006;28;20378;-67
2021/06/12 09:52:13;;;;;;;8.98;1.30;;;22.10;61.30;;;;;;5092571;28;20073;-67
2021/06/12 09:54:43;;;;;;;6.18;1.20;;;22.30;61.10;;;;;;5092899;28;20516;-67
2021/06/12 09:57:11;;;;;;;7.40;1.08;;;22.40;59.70;;;;;;5092903;28;20470;-67
2021/06/12 09:59:43;;;;;;;4.78;1.25;;;22.50;59.10;;;;;;5092979;28;20028;-67
2021/06/12 10:02:10;;;;;;;5.57;1.10;;;22.40;59.20;;;;;;5092871;28;20032;-67
2021/06/12 10:04:36;;;;;;;8.68;1.58;;;22.30;58.80;;;;;;5092699;28;20103;-67
2021/06/12 10:07:01;;;;;;;9.63;1.20;;;22.30;58.60;;;;;;5092975;28;20111;-67
2021/06/12 10:09:27;;;;;;;3.65;1.00;;;22.40;58.80;;;;;;5092719;28;20034;-67
2021/06/12 10:11:54;;;;;;;3.28;1.40;;;22.40;58.40;;;;;;5092627;28;20016;-67
2021/06/12 10:14:20;;;;;;;4.82;1.20;;;22.40;58.20;;;;;;5092883;28;20102;-67
2021/06/12 10:16:47;;;;;;;7.20;1.63;;;22.30;59.20;;;;;;5092597;28;20020;-67
2021/06/12 10:19:16;;;;;;;5.13;1.70;;;22.30;59.20;;;;;;5092449;28;20093;-68
2021/06/12 10:21:42;;;;;;;5.68;1.33;;;22.30;58.60;;;;;;5092611;28;20028;-68
2021/06/12 10:24:09;;;;;;;6.30;1.77;;;22.30;59.00;;;;;;5096613;28;20385;-67
2021/06/12 10:26:36;;;;;;;5.97;1.40;;;22.40;58.70;;;;;;5096962;28;20023;-67
2021/06/12 10:29:03;;;;;;;6.22;1.40;;;22.40;58.20;;;;;;5096896;28;20498;-67
2021/06/12 10:31:37;;;;;;;5.78;1.35;;;22.40;58.80;;;;;;5096789;28;20429;-67
2021/06/12 10:34:04;;;;;;;8.52;2.05;;;22.40;58.40;;;;;;5095347;28;20111;-67
2021/06/12 10:36:32;;;;;;;10.95;1.55;;;22.30;58.20;;;;;;5096497;28;20067;-67
2021/06/12 10:38:58;;;;;;;10.63;1.50;;;22.40;58.30;;;;;;5078993;28;20390;-67
2021/06/12 10:41:31;;;;;;;4.15;1.27;;;22.40;58.30;;;;;;5095418;28;20057;-67
2021/06/12 10:44:00;;;;;;;7.40;0.82;;;22.40;57.80;;;;;;5096487;28;20027;-67
2021/06/12 10:46:49;;;;;;;6.40;1.08;;;22.50;58.00;;;;;;5096180;28;20025;-67
2021/06/12 10:49:27;;;;;;;8.10;1.83;;;22.50;58.30;;;;;;5085617;28;20044;-67
2021/06/12 10:51:53;;;;;;;4.40;1.15;;;22.60;57.90;;;;;;5096470;28;20020;-67
2021/06/12 10:54:25;;;;;;;3.72;0.98;;;22.50;57.60;;;;;;5096162;28;20482;-67
2021/06/12 10:56:59;;;;;;;7.63;1.33;;;22.40;58.10;;;;;;5077920;28;20099;-67
2021/06/12 10:59:37;;;;;;;4.25;1.00;;;22.40;58.10;;;;;;5096115;28;20385;-67
2021/06/12 11:02:55;;;;;;;11.50;1.38;;;22.50;57.70;;;;;;5096323;28;20054;-67
2021/06/12 11:05:05;;;;;;;3.25;0.75;;;22.50;57.00;;;;;;5081758;28;20401;-67
2021/06/12 11:07:36;;;;;;;6.43;1.05;;;22.40;56.20;;;;;;5096081;28;20103;-67
2021/06/12 11:10:14;;;;;;;2.85;0.75;;;22.40;56.00;;;;;;5096124;28;20050;-67
2021/06/12 11:12:44;;;;;;;3.95;0.80;;;22.40;54.20;;;;;;5096204;28;20020;-67
2021/06/12 11:15:16;;;;;;;5.80;0.90;;;22.30;55.10;;;;;;5095736;28;20015;-67
2021/06/12 11:17:44;;;;;;;7.00;0.75;;;22.30;55.60;;;;;;5095798;28;20035;-67
2021/06/12 11:20:13;;;;;;;3.58;0.70;;;22.20;55.20;;;;;;5077380;28;20020;-67
2021/06/12 11:22:53;;;;;;;4.10;0.63;;;22.20;54.60;;;;;;5094454;28;20028;-67
2021/06/12 11:25:18;;;;;;;3.38;0.73;;;22.20;54.50;;;;;;5095698;28;20038;-67
2021/06/12 11:27:49;;;;;;;6.03;0.90;;;22.20;55.00;;;;;;5095671;28;20028;-67
2021/06/12 11:30:18;;;;;;;4.80;0.80;;;22.30;55.20;;;;;;5095702;28;20363;-67
2021/06/12 11:32:48;;;;;;;7.05;0.70;;;22.50;55.30;;;;;;5095897;28;20059;-67
2021/06/12 11:35:42;;;;;;;5.20;0.85;;;22.70;55.90;;;;;;5094639;28;20024;-67
2021/06/12 11:38:33;;;;;;;3.30;0.60;;;22.70;54.00;;;;;;5095501;28;20478;-67
2021/06/12 11:41:01;;;;;;;3.75;0.80;;;22.50;53.80;;;;;;5095289;28;20028;-67
2021/06/12 11:43:28;;;;;;;7.03;0.90;;;22.30;54.60;;;;;;5095329;28;20067;-67
2021/06/12 11:45:54;;;;;;;4.93;0.98;;;22.20;53.50;;;;;;5095399;28;20032;-67
2021/06/12 11:48:23;;;;;;;4.50;0.90;;;22.10;53.70;;;;;;5095210;28;20031;-67
2021/06/12 11:50:49;;;;;;;2.53;0.70;;;21.90;54.40;;;;;;5095417;28;20050;-67
2021/06/12 11:53:16;;;;;;;3.80;0.88;;;21.80;54.50;;;;;;5094692;28;20119;-67
2021/06/12 11:55:42;;;;;;;7.72;0.60;;;21.80;55.20;;;;;;5095378;28;20020;-67
2021/06/12 11:58:08;;;;;;;3.92;0.70;;;21.70;55.00;;;;;;5095072;28;20071;-67
2021/06/12 12:00:35;;;;;;;8.05;1.00;;;21.70;55.20;;;;;;5076934;28;20062;-67
2021/06/12 12:03:09;;;;;;;3.90;0.93;;;21.60;56.10;;;;;;5094961;28;20025;-67
2021/06/12 12:05:36;;;;;;;7.30;1.10;;;21.70;56.10;;;;;;5095002;28;20048;-67
2021/06/12 12:08:07;;;;;;;6.90;0.80;;;21.80;55.50;;;;;;5076483;28;20024;-67
2021/06/12 12:10:32;;;;;;;4.68;0.95;;;21.70;55.70;;;;;;5076722;28;20016;-67
2021/06/12 12:12:59;;;;;;;5.50;0.70;;;21.80;55.90;;;;;;5094856;28;20032;-67
2021/06/12 12:15:44;;;;;;;3.70;0.60;;;21.90;55.60;;;;;;5094646;28;20035;-67
2021/06/12 12:18:11;;;;;;;4.22;0.80;;;21.80;55.60;;;;;;5064724;28;20442;-67
2021/06/12 12:20:42;;;;;;;5.63;1.00;;;21.80;55.70;;;;;;5056412;28;20074;-67
2021/06/12 12:23:37;;;;;;;3.97;1.00;;;21.90;55.40;;;;;;5091397;28;20043;-67
2021/06/12 12:26:17;;;;;;;3.28;0.60;;;22.00;55.30;;;;;;5077182;28;20036;-67
2021/06/12 12:28:55;;;;;;;3.72;0.70;;;22.10;55.20;;;;;;5094295;28;20055;-67
2021/06/12 12:31:20;;;;;;;3.22;0.60;;;22.20;55.90;;;;;;5094712;28;20085;-67
2021/06/12 12:33:48;;;;;;;5.60;1.00;;;22.20;55.60;;;;;;5094611;28;20047;-67
2021/06/12 12:36:14;;;;;;;6.57;0.82;;;22.20;55.30;;;;;;5076289;28;20022;-67
2021/06/12 12:38:41;;;;;;;10.52;1.00;;;22.10;55.00;;;;;;5094866;28;20425;-67
2021/06/12 12:41:09;;;;;;;5.63;0.90;;;21.90;55.00;;;;;;5094368;28;20035;-67
2021/06/12 12:43:35;;;;;;;6.25;0.77;;;21.90;55.60;;;;;;5094096;28;20046;-67
2021/06/12 12:46:04;;;;;;;5.60;1.05;;;21.90;55.50;;;;;;5094057;28;20028;-67